METAR Reports

 

EHEH - Eindhoven Airport, Eindhoven, NL
Distance from station: W 30km
Updated: 17/10/2018 18:55
Zwaar bewolkt
Zwaar bewolkt
 Wind van NNW
Wind: NNW 6 km/h
Temperatuur: 16°C
Dauwpunt: 12°C
Vochtigheid: 77%
Barometer: 1019 hPa
Clouds: Zwaar bewolkt
Visibility: 10 km
Cloud details: Zwaar bewolkt 10058 m
2018/10/17 16:55 EHEH 171655Z AUTO 33003KT 270V350 9999 OVC330 16/12 Q1019 BLU 35004KT CAVOK
EHVK - Volkel Airoprt, Volkel, NL
Distance from station: NO 30km
Updated: 17/10/2018 18:55
Zwaar bewolkt
Zwaar bewolkt
 Wind van varies
Wind: varies 4 km/h
Temperatuur: 17°C
Dauwpunt: 12°C
Vochtigheid: 73%
Barometer: 1019 hPa
Clouds: Zwaar bewolkt
Visibility: 10 km
Cloud details: Zwaar bewolkt 10363 m
2018/10/17 16:55 EHVK 171655Z AUTO VRB02KT 9999 OVC340 17/12 Q1019 BLU
 
EHGR - Gilze-Rijen Airport, Gilze-Rijen, NL
Distance from station: W 43km
Updated: 17/10/2018 18:55
Zwaar bewolkt
Zwaar bewolkt
 Wind van NW
Wind: NW 11 km/h
Temperatuur: 16°C
Dauwpunt: 13°C
Vochtigheid: 83%
Barometer: 1019 hPa
Clouds: Zwaar bewolkt
Visibility: 10 km
Cloud details: Gedeeltelijk bewolkt 884 m
Zwaar bewolkt 1036 m
2018/10/17 16:55 EHGR 171655Z AUTO 31006KT 290V360 9999 SCT029 OVC034 16/13 Q1019 BLU 31006KT 9999 SCT028
EHBK - Maastricht-Aken Airport, Beek, NL
Distance from station: ZZO 70km
Updated: 17/10/2018 18:55
Gedeeltelijk bewolkt
Gedeeltelijk bewolkt
 Wind van NNW
Wind: NNW 7 km/h
Temperatuur: 17°C
Dauwpunt: 13°C
Vochtigheid: 77%
Barometer: 1019 hPa
Clouds: Gedeeltelijk bewolkt
Visibility: 10 km
2018/10/17 16:55 EHBK 171655Z AUTO 34004KT 9999 NSC 17/13 Q1019 NOSIG
 
EHAM - Schiphol, Amsterdam, NL
Distance from station: NNW 115km
Updated: 17/10/2018 18:55
Few Clouds
Few Clouds
 Wind van WNW
Wind: WNW 9 km/h
Temperatuur: 13°C
Dauwpunt: 10°C
Vochtigheid: 82%
Barometer: 1020 hPa
Clouds: Few Clouds
Visibility: 10 km
Cloud details: Few Clouds 518 m
2018/10/17 16:55 EHAM 171655Z 29005KT 9999 FEW017 13/10 Q1020 NOSIG